Terminal Aerodrome Forecast
Issued by NWS Wilmington, OH

Current Version | Previous Version | Text Only | Print | Product List | Glossary On
Versions: 1 2 3 4 5 6 7 8 9 10 11 12 13 14 15 16 17 18 19 20 21 22 23 24 25 26 27 28 29 30
000
FTUS41 KILN 280536
TAFCVG
TAF
KCVG 280536Z 2806/2912 10004KT P6SM FEW045 BKN250
     FM280900 VRB03KT 5SM BR BKN250
     FM281200 VRB04KT P6SM SCT250
     FM281700 07005KT P6SM VCSH FEW025 BKN040
     FM290000 VRB04KT P6SM FEW040 SCT250
     FM290600 VRB02KT 4SM BR SCT250
     FM291000 VRB02KT 2SM BR SCT250=

USA.gov is the U.S. government's official web portal to all federal, state and local government web resources and services.